Time;durP1;ratioP1;P1;durP2;ratioP2;P2;SDS_P1;SDS_P2;PMS_P1;PMS_P2;Temp;Humidity;BMP_temperature;BMP_pressure;BME280_temperature;BME280_humidity;BME280_pressure;Samples;Min_cycle;Max_cycle;Signal;HPM_P1;HPM_P2
2022/12/13 00:02:24;;;;;;;33.73;18.30;;;-7.50;85.50;;;-8.41;83.49;97521.91;5083944;28;20452;-71
2022/12/13 00:04:52;;;;;;;32.03;17.53;;;-7.50;85.50;;;-8.41;82.58;97526.34;5081513;28;20455;-72
2022/12/13 00:07:20;;;;;;;30.37;16.03;;;-7.50;85.10;;;-8.44;82.77;97522.13;5089868;28;20443;-73
2022/12/13 00:09:48;;;;;;;36.40;16.95;;;-7.50;85.20;;;-9.06;83.64;97415.59;5086937;28;20457;-73
2022/12/13 00:12:16;;;;;;;24.93;15.47;;;-7.50;86.40;;;-8.39;83.12;97519.19;5095447;28;20190;-73
2022/12/13 00:14:43;;;;;;;27.30;16.67;;;-7.50;85.70;;;-8.66;83.48;97488.78;5097687;28;20451;-72
2022/12/13 00:17:10;;;;;;;31.63;16.57;;;-7.50;85.70;;;-8.47;83.82;97519.75;5110154;28;20443;-74
2022/12/13 00:19:38;;;;;;;29.00;16.60;;;-7.50;85.30;;;-8.41;82.85;97510.59;5083791;28;20953;-75
2022/12/13 00:22:05;;;;;;;27.80;17.52;;;-7.50;85.40;;;-8.41;82.62;97521.09;5070442;28;20440;-72
2022/12/13 00:24:34;;;;;;;31.17;14.50;;;-7.60;84.30;;;-8.63;82.41;97499.03;5087475;28;20198;-74
2022/12/13 00:27:01;;;;;;;26.60;15.50;;;-7.70;84.50;;;-8.62;82.52;97500.72;5091611;28;20447;-73
2022/12/13 00:29:28;;;;;;;27.10;16.17;;;-7.60;85.80;;;-8.54;82.79;97502.78;5087725;28;20481;-72
2022/12/13 00:31:56;;;;;;;28.90;14.60;;;-7.60;85.90;;;-8.36;82.97;97512.88;5102222;28;20447;-72
2022/12/13 00:34:23;;;;;;;24.87;16.70;;;-7.50;86.20;;;-8.47;82.95;97511.03;5092703;27;20458;-74
2022/12/13 00:36:50;;;;;;;33.20;16.33;;;-7.50;85.00;;;-8.98;82.89;97429.00;5082491;28;21002;-73
2022/12/13 00:39:18;;;;;;;25.70;15.60;;;-7.60;84.50;;;-8.61;83.02;97510.25;5085546;28;20901;-73
2022/12/13 00:41:47;;;;;;;26.50;15.00;;;-7.60;84.70;;;-8.59;83.52;97507.53;5079944;28;20468;-74
2022/12/13 00:44:15;;;;;;;27.40;15.50;;;-7.60;85.10;;;-8.59;82.82;97502.28;5087387;28;20461;-72
2022/12/13 00:46:43;;;;;;;25.77;14.57;;;-7.60;85.10;;;-8.53;82.71;97501.84;5080600;28;20452;-74
2022/12/13 00:49:12;;;;;;;24.23;14.50;;;-7.60;85.10;;;-8.58;82.03;97494.28;5087683;28;20454;-73
2022/12/13 00:51:40;;;;;;;28.83;15.40;;;-7.70;84.00;;;-8.75;82.24;97476.31;5089934;28;20440;-73
2022/12/13 00:54:07;;;;;;;25.87;13.43;;;-7.70;84.60;;;-9.04;82.53;97432.88;5092221;28;20878;-74
2022/12/13 00:56:35;;;;;;;28.90;15.97;;;-7.70;84.90;;;-8.69;82.82;97494.22;5089522;28;20542;-74
2022/12/13 00:59:04;;;;;;;27.57;14.80;;;-7.70;84.20;;;-8.95;82.74;97457.59;5082690;28;20986;-73
2022/12/13 01:01:35;;;;;;;26.60;14.90;;;-7.70;84.10;;;-8.62;82.20;97492.84;5079209;28;20457;-73
2022/12/13 01:04:05;;;;;;;28.98;16.08;;;-7.70;84.00;;;-8.66;82.17;97488.78;5076284;28;20887;-74
2022/12/13 01:06:37;;;;;;;26.73;14.93;;;-7.70;83.50;;;-8.80;81.89;97465.31;5082663;28;20194;-75
2022/12/13 01:09:07;;;;;;;27.43;14.77;;;-7.80;83.40;;;-8.81;82.26;97467.09;5079389;28;20470;-74
2022/12/13 01:11:35;;;;;;;31.93;15.40;;;-7.80;82.70;;;-8.86;82.76;97501.47;5076597;28;20474;-74
2022/12/13 01:14:04;;;;;;;36.13;16.33;;;-7.80;83.30;;;-9.23;82.32;97408.94;5090754;28;20482;-75
2022/12/13 01:16:31;;;;;;;27.17;14.63;;;-7.80;82.80;;;-8.74;81.69;97483.22;5092124;28;20486;-74
2022/12/13 01:18:59;;;;;;;30.63;15.88;;;-7.80;82.40;;;-9.00;82.18;97457.09;5085882;28;20804;-74
2022/12/13 01:21:26;;;;;;;24.93;14.77;;;-7.80;82.40;;;-8.87;82.75;97478.88;5086410;28;20204;-74
2022/12/13 01:23:56;;;;;;;27.95;14.40;;;-7.90;83.50;;;-8.87;82.64;97452.66;5083652;28;20460;-74
2022/12/13 01:26:23;;;;;;;27.27;14.60;;;-7.80;83.80;;;-8.85;82.96;97482.22;5082360;28;20193;-74
2022/12/13 01:28:50;;;;;;;28.25;14.77;;;-7.90;83.10;;;-8.87;82.99;97478.88;5087728;28;21244;-73
2022/12/13 01:31:20;;;;;;;25.57;14.20;;;-7.90;83.40;;;-8.92;83.27;97460.00;5104190;27;20255;-73
2022/12/13 01:33:49;;;;;;;24.87;15.53;;;-7.90;83.50;;;-8.86;82.64;97475.28;5076298;28;21142;-75
2022/12/13 01:36:19;;;;;;;28.50;16.93;;;-7.90;83.90;;;-8.95;82.69;97468.06;5079290;28;20636;-73
2022/12/13 01:38:47;;;;;;;28.00;14.90;;;-7.90;83.80;;;-9.16;83.40;97457.28;5097658;28;20489;-74
2022/12/13 01:41:16;;;;;;;25.97;13.53;;;-8.00;83.90;;;-9.74;82.59;97369.59;5084560;28;20475;-74
2022/12/13 01:43:58;;;;;;;23.88;13.63;;;-8.00;84.40;;;-8.97;82.66;97477.81;5069155;28;20494;-74
2022/12/13 01:46:34;;;;;;;23.23;13.60;;;-8.00;83.50;;;-9.27;82.71;97442.31;5075925;28;20260;-75
2022/12/13 01:49:06;;;;;;;27.90;14.50;;;-8.00;83.40;;;-8.99;82.54;97492.78;5084607;28;20455;-75
2022/12/13 01:51:41;;;;;;;25.03;13.27;;;-8.00;83.80;;;-9.01;82.26;97492.06;5083769;28;20815;-74
2022/12/13 01:54:12;;;;;;;25.17;13.70;;;-8.10;83.40;;;-9.05;83.19;97475.72;5091949;28;20454;-74
2022/12/13 01:56:45;;;;;;;21.27;13.27;;;-8.10;83.90;;;-9.09;83.13;97473.41;5077465;28;20451;-73
2022/12/13 01:59:16;;;;;;;25.03;13.33;;;-8.00;83.90;;;-9.00;82.44;97486.72;5081526;28;20467;-76
2022/12/13 02:01:55;;;;;;;24.07;12.73;;;-8.00;82.80;;;-9.04;82.38;97484.41;5081612;28;20523;-73
2022/12/13 02:04:29;;;;;;;23.98;12.82;;;-8.00;82.10;;;-9.28;81.66;97451.13;5105062;27;20475;-75
2022/12/13 02:06:58;;;;;;;22.60;12.55;;;-8.00;81.30;;;-9.31;82.04;97451.34;5083142;28;20186;-74
2022/12/13 02:09:26;;;;;;;23.40;13.53;;;-8.10;81.20;;;-9.09;82.22;97476.88;5069464;28;20557;-73
2022/12/13 02:11:54;;;;;;;22.87;12.23;;;-8.20;82.00;;;-9.12;82.13;97470.06;5079371;28;20460;-73
2022/12/13 02:14:21;;;;;;;19.67;11.77;;;-8.20;83.10;;;-9.22;81.98;97463.78;5074775;28;20498;-73
2022/12/13 02:17:01;;;;;;;22.40;13.60;;;-8.20;83.00;;;-9.11;81.56;97461.28;5086124;28;20947;-74
2022/12/13 02:20:11;;;;;;;19.60;13.20;;;-8.10;82.50;;;-9.22;82.56;97458.53;5099352;28;20506;-73
2022/12/13 02:23:07;;;;;;;20.10;11.70;;;-8.20;81.80;;;-10.05;82.91;97335.06;5080107;28;20456;-73
2022/12/13 02:25:58;;;;;;;22.27;10.23;;;-8.20;83.00;;;-9.37;83.15;97428.19;5097200;28;20449;-74
2022/12/13 02:28:47;;;;;;;25.40;13.00;;;-8.10;84.30;;;-9.11;82.81;97474.34;5083651;28;20202;-73
2022/12/13 02:31:18;;;;;;;21.03;13.07;;;-8.10;83.50;;;-9.17;81.90;97466.09;5080930;28;20982;-74
2022/12/13 02:33:53;;;;;;;25.53;12.33;;;-8.20;83.30;;;-9.78;82.15;97373.38;5080079;28;20445;-76
2022/12/13 02:36:29;;;;;;;19.85;11.45;;;-8.20;82.50;;;-9.56;83.17;97426.81;5099310;28;20455;-74
2022/12/13 02:39:01;;;;;;;24.50;12.80;;;-8.20;83.00;;;-9.51;83.15;97421.28;5117798;27;20743;-72
2022/12/13 02:41:36;;;;;;;24.53;13.70;;;-8.20;83.40;;;-9.47;82.91;97439.31;5079992;28;20843;-73
2022/12/13 02:44:10;;;;;;;25.20;12.50;;;-8.20;82.30;;;-9.32;83.07;97449.66;5093253;28;20474;-73
2022/12/13 02:46:47;;;;;;;25.50;12.47;;;-8.20;82.70;;;-9.31;82.66;97460.00;5078989;28;20508;-75
2022/12/13 02:49:16;;;;;;;23.50;12.50;;;-8.20;82.20;;;-9.23;82.88;97461.28;5084848;28;20458;-75
2022/12/13 02:51:45;;;;;;;23.17;14.20;;;-8.20;82.60;;;-9.31;82.66;97480.13;5094079;28;20809;-74
2022/12/13 02:54:12;;;;;;;20.40;12.40;;;-8.20;81.90;;;-9.44;82.21;97439.09;5102911;28;20858;-74
2022/12/13 02:56:39;;;;;;;23.37;12.27;;;-8.20;82.20;;;-9.33;82.50;97448.81;5089524;28;20452;-71
2022/12/13 02:59:11;;;;;;;18.80;11.00;;;-8.20;82.50;;;-9.21;82.47;97454.97;5088938;28;20464;-74
2022/12/13 03:02:01;;;;;;;20.92;11.40;;;-8.20;82.10;;;-9.31;81.99;97454.78;5102309;28;20491;-72
2022/12/13 03:06:28;;;;;;;22.40;12.43;;;-8.30;81.50;;;-9.52;82.77;97430.91;5087872;28;20246;-74
2022/12/13 03:07:38;;;;;;;21.60;13.98;;;-8.30;81.80;;;-9.57;82.59;97399.00;5098351;28;20916;-73
2022/12/13 03:10:12;;;;;;;27.80;13.10;;;-8.20;82.80;;;-9.30;82.49;97442.53;5099295;28;20200;-74
2022/12/13 03:15:39;;;;;;;21.17;12.88;;;-8.20;82.60;;;-9.39;83.40;97439.59;5088806;28;20459;-74
2022/12/13 03:18:15;;;;;;;21.90;12.43;;;-8.20;83.20;;;-9.37;83.15;97443.88;5100545;28;20195;-74
2022/12/13 03:20:47;;;;;;;20.10;11.73;;;-8.20;83.30;;;-9.41;83.55;97438.03;5097829;28;20515;-73
2022/12/13 03:23:15;;;;;;;27.70;13.47;;;-8.20;83.10;;;-9.33;83.42;97437.50;5103835;28;20462;-74
2022/12/13 03:25:44;;;;;;;22.20;12.77;;;-8.30;83.20;;;-9.32;82.61;97441.81;5077599;28;20459;-72
2022/12/13 03:28:11;;;;;;;22.40;12.57;;;-8.30;82.50;;;-9.72;82.78;97387.78;5091062;28;20452;-75
2022/12/13 03:30:39;;;;;;;25.37;13.73;;;-8.30;82.70;;;-9.34;83.01;97426.22;5084790;28;20790;-74
2022/12/13 03:33:07;;;;;;;30.90;12.37;;;-8.30;82.60;;;-9.82;82.33;97341.34;5070790;28;20444;-72
2022/12/13 03:35:35;;;;;;;28.77;13.10;;;-8.30;82.60;;;-9.45;82.28;97406.00;5067818;28;20456;-73
2022/12/13 03:38:04;;;;;;;22.60;12.68;;;-8.30;82.80;;;-9.38;82.47;97416.91;5093031;28;20440;-74
2022/12/13 03:40:32;;;;;;;26.03;12.87;;;-8.30;81.60;;;-9.38;82.64;97414.28;5085729;28;20225;-72
2022/12/13 03:42:59;;;;;;;20.03;10.83;;;-8.30;81.50;;;-9.43;82.72;97409.38;5074918;28;20447;-74
2022/12/13 03:45:27;;;;;;;23.55;12.45;;;-8.30;81.70;;;-9.37;82.43;97415.09;5086414;28;20501;-72
2022/12/13 03:47:54;;;;;;;22.70;10.40;;;-8.30;82.10;;;-9.33;82.04;97412.19;5109466;27;20220;-75
2022/12/13 03:50:23;;;;;;;21.40;10.47;;;-8.30;81.90;;;-9.34;82.07;97414.88;5088708;28;20466;-74
2022/12/13 03:52:51;;;;;;;21.90;12.18;;;-8.30;81.90;;;-9.46;82.12;97420.03;5092862;27;20951;-76
2022/12/13 03:55:18;;;;;;;19.83;11.40;;;-8.30;81.80;;;-9.47;83.01;97418.38;5095781;28;20222;-73
2022/12/13 03:57:46;;;;;;;25.23;13.10;;;-8.30;82.30;;;-9.52;83.46;97409.97;5083878;28;20197;-73
2022/12/13 04:00:15;;;;;;;19.73;11.27;;;-8.40;82.50;;;-9.54;83.05;97409.25;5092336;28;20491;-74
2022/12/13 04:02:42;;;;;;;27.30;13.13;;;-8.30;82.80;;;-9.81;83.17;97363.09;5083769;28;20225;-73
2022/12/13 04:05:10;;;;;;;25.17;12.52;;;-8.40;82.60;;;-9.60;83.23;97402.66;5085791;28;20598;-76
2022/12/13 04:07:39;;;;;;;18.70;10.60;;;-8.40;82.40;;;-9.49;82.71;97411.56;5091278;28;20622;-75
2022/12/13 04:10:07;;;;;;;22.85;12.75;;;-8.40;82.10;;;-9.61;83.08;97405.38;5097850;28;20449;-73
2022/12/13 04:15:20;;;;;;;19.10;10.63;;;-8.40;82.80;;;-9.48;83.48;97406.19;5101042;27;20452;-74
2022/12/13 04:17:47;;;;;;;17.05;10.45;;;-8.40;82.90;;;-9.41;83.17;97398.78;5082806;28;20269;-72
2022/12/13 04:20:15;;;;;;;21.90;12.63;;;-8.30;83.10;;;-9.39;82.53;97399.53;5079167;28;20267;-72
2022/12/13 04:22:43;;;;;;;25.23;13.83;;;-8.40;82.30;;;-9.40;82.35;97408.28;5087428;28;20444;-74
2022/12/13 04:25:11;;;;;;;25.60;11.90;;;-8.50;82.20;;;-9.45;82.67;97394.69;5083854;28;20462;-73
2022/12/13 04:27:38;;;;;;;24.38;11.82;;;-8.50;82.70;;;-9.46;82.20;97393.03;5069897;28;21021;-72
2022/12/13 04:30:08;;;;;;;23.10;11.45;;;-8.50;82.30;;;-9.43;82.11;97403.28;5080948;28;20269;-71
2022/12/13 04:32:35;;;;;;;20.10;11.20;;;-8.50;83.50;;;-9.38;82.14;97395.97;5087000;28;20222;-73
2022/12/13 04:35:03;;;;;;;26.50;12.10;;;-8.50;82.90;;;-9.48;82.09;97387.06;5081011;28;20876;-73
2022/12/13 04:37:30;;;;;;;21.17;12.60;;;-8.50;83.40;;;-9.44;82.18;97391.13;5088924;28;20464;-72
2022/12/13 04:39:59;;;;;;;23.83;11.65;;;-8.50;83.00;;;-9.39;81.18;97395.13;5083885;28;21140;-74
2022/12/13 04:42:26;;;;;;;18.30;12.37;;;-8.50;81.80;;;-9.58;81.53;97394.72;5098501;27;20190;-71
2022/12/13 04:44:53;;;;;;;27.07;14.20;;;-8.50;81.60;;;-9.52;81.23;97391.66;5080551;28;20853;-72
2022/12/13 04:47:20;;;;;;;22.57;10.90;;;-8.50;80.80;;;-9.69;81.82;97390.22;5090959;28;20470;-73
2022/12/13 04:49:47;;;;;;;17.50;11.23;;;-8.50;80.60;;;-9.60;81.92;97392.19;5074791;28;20439;-73
2022/12/13 04:52:15;;;;;;;21.53;11.63;;;-8.50;81.40;;;-9.65;82.31;97398.66;5087051;28;20456;-74
2022/12/13 04:54:42;;;;;;;27.30;13.13;;;-8.50;81.30;;;-9.62;81.90;97404.53;5080360;28;20506;-75
2022/12/13 04:57:12;;;;;;;20.38;11.30;;;-8.50;81.00;;;-9.60;81.89;97412.28;5079610;28;21265;-72
2022/12/13 04:59:40;;;;;;;28.83;13.48;;;-8.50;81.60;;;-9.64;82.71;97405.56;5079668;28;20220;-74
2022/12/13 05:02:08;;;;;;;21.10;12.75;;;-8.60;81.30;;;-9.78;82.88;97389.06;5097046;28;20883;-74
2022/12/13 05:04:36;;;;;;;22.83;11.37;;;-8.60;81.20;;;-9.70;82.51;97397.22;5079972;28;20255;-74
2022/12/13 05:07:04;;;;;;;20.60;10.67;;;-8.60;81.80;;;-9.77;82.76;97395.97;5087405;28;20457;-73
2022/12/13 05:09:31;;;;;;;22.60;12.77;;;-8.60;81.60;;;-9.67;82.36;97397.00;5090594;28;20462;-74
2022/12/13 05:11:58;;;;;;;31.57;12.93;;;-8.60;81.20;;;-9.78;82.85;97393.44;5096288;28;20198;-73
2022/12/13 05:14:27;;;;;;;25.92;13.70;;;-8.60;81.80;;;-9.72;82.65;97399.09;5083524;28;20466;-73
2022/12/13 05:16:54;;;;;;;17.70;11.70;;;-8.60;81.60;;;-9.73;81.55;97405.25;5085303;28;20205;-72
2022/12/13 05:19:22;;;;;;;20.20;10.90;;;-8.60;81.00;;;-9.78;81.83;97404.75;5086905;28;20479;-71
2022/12/13 05:21:50;;;;;;;27.55;12.35;;;-8.70;80.70;;;-9.84;82.46;97405.13;5099647;28;20455;-72
2022/12/13 05:24:17;;;;;;;21.93;12.77;;;-8.70;81.70;;;-9.78;82.19;97403.91;5086740;28;20194;-74
2022/12/13 05:26:44;;;;;;;28.63;12.17;;;-8.80;81.00;;;-9.91;82.10;97388.19;5104224;28;20456;-72
2022/12/13 05:29:11;;;;;;;27.00;12.80;;;-8.80;81.10;;;-9.83;83.42;97391.13;5095898;28;20534;-72
2022/12/13 05:31:40;;;;;;;23.80;13.33;;;-8.70;83.10;;;-9.69;82.10;97404.09;5100794;28;20463;-72
2022/12/13 05:34:07;;;;;;;23.17;13.60;;;-8.70;82.00;;;-9.72;82.62;97413.94;5090541;28;20500;-73
2022/12/13 05:36:35;;;;;;;29.53;12.77;;;-8.70;82.80;;;-9.63;83.06;97407.25;5098374;28;20444;-74
2022/12/13 05:39:02;;;;;;;25.83;12.27;;;-8.60;83.50;;;-9.64;82.85;97395.09;5086806;28;20503;-70
2022/12/13 05:41:34;;;;;;;23.88;12.13;;;-8.60;83.10;;;-9.50;82.29;97405.47;5107872;27;20544;-71
2022/12/13 05:44:02;;;;;;;23.73;12.80;;;-8.60;83.30;;;-9.43;82.19;97409.38;5084568;28;20574;-70
2022/12/13 05:46:29;;;;;;;18.33;12.95;;;-8.50;83.50;;;-9.42;81.58;97404.94;5122006;27;20196;-70
2022/12/13 05:48:58;;;;;;;22.30;11.63;;;-8.50;82.30;;;-9.65;82.13;97401.28;5112037;28;20242;-71
2022/12/13 05:51:25;;;;;;;22.13;12.60;;;-8.50;81.40;;;-9.73;82.64;97397.41;5118724;28;20447;-71
2022/12/13 05:53:52;;;;;;;22.08;12.02;;;-8.50;82.10;;;-9.73;82.63;97386.09;5130812;27;20462;-71
2022/12/13 05:56:20;;;;;;;23.70;13.87;;;-8.50;82.00;;;-9.63;82.70;97396.78;5102163;28;20211;-72
2022/12/13 05:58:47;;;;;;;24.38;14.27;;;-8.50;82.40;;;-9.69;83.01;97385.81;5101566;28;20845;-70
2022/12/13 06:01:16;;;;;;;23.05;13.65;;;-8.50;82.40;;;-9.53;83.01;97390.00;5086179;28;20222;-72
2022/12/13 06:03:45;;;;;;;24.00;13.07;;;-8.40;82.50;;;-9.64;82.59;97395.97;5097308;28;20667;-71
2022/12/13 06:06:16;;;;;;;21.83;12.40;;;-8.40;81.20;;;-9.70;82.80;97371.06;5111408;27;20201;-70
2022/12/13 06:08:44;;;;;;;27.63;12.20;;;-8.40;81.70;;;-9.48;82.94;97390.50;5078156;28;20473;-70
2022/12/13 06:11:12;;;;;;;20.63;11.35;;;-8.40;82.00;;;-9.43;82.76;97383.19;5091534;28;20558;-80
2022/12/13 06:13:41;;;;;;;19.87;11.10;;;-8.40;82.30;;;-9.34;81.77;97391.34;5085789;28;20209;-70
2022/12/13 06:16:09;;;;;;;21.00;11.30;;;-8.40;81.90;;;-9.37;82.08;97400.25;5095194;28;20456;-82
2022/12/13 06:18:36;;;;;;;27.95;12.90;;;-8.40;81.10;;;-9.40;82.60;97393.44;5091636;28;20436;-72
2022/12/13 06:21:07;;;;;;;20.13;11.97;;;-8.40;81.20;;;-9.44;82.24;97381.53;5083923;28;20213;-71
2022/12/13 06:23:37;;;;;;;21.17;11.67;;;-8.40;81.20;;;-9.26;82.03;97391.66;5072048;28;20452;-70
2022/12/13 06:26:05;;;;;;;19.33;11.27;;;-8.30;81.20;;;-9.44;81.56;97370.22;5085247;28;20505;-70
2022/12/13 06:28:33;;;;;;;21.23;12.00;;;-8.30;80.80;;;-9.25;82.09;97398.56;5103950;27;20459;-73
2022/12/13 06:31:01;;;;;;;21.83;12.10;;;-8.30;81.70;;;-9.52;81.97;97352.41;5080577;28;20529;-74
2022/12/13 06:33:28;;;;;;;30.73;14.07;;;-8.20;81.80;;;-9.45;81.93;97369.38;5084448;28;20474;-72
2022/12/13 06:35:59;;;;;;;19.08;13.13;;;-8.20;80.70;;;-9.18;81.47;97386.72;5083695;28;20202;-73
2022/12/13 06:38:26;;;;;;;25.10;14.20;;;-8.20;80.80;;;-9.24;81.08;97392.38;5083984;28;20548;-74
2022/12/13 06:40:55;;;;;;;23.08;13.30;;;-8.20;80.20;;;-9.26;81.99;97378.56;5074394;28;20482;-75
2022/12/13 06:43:22;;;;;;;19.07;11.30;;;-8.30;81.20;;;-9.30;81.90;97398.88;5084079;28;20197;-74
2022/12/13 06:45:50;;;;;;;20.50;11.20;;;-8.30;81.10;;;-9.31;82.80;97385.91;5073212;28;20471;-77
2022/12/13 06:48:17;;;;;;;23.15;12.15;;;-8.30;81.30;;;-9.32;82.37;97400.78;5078849;28;22352;-76
2022/12/13 06:50:44;;;;;;;22.77;12.80;;;-8.30;81.30;;;-9.25;81.43;97411.66;5084980;28;20277;-74
2022/12/13 06:53:12;;;;;;;22.40;12.77;;;-8.30;80.70;;;-9.85;81.30;97319.81;5081477;28;21138;-75
2022/12/13 06:55:39;;;;;;;20.80;12.53;;;-8.30;80.40;;;-9.39;82.27;97394.31;5077156;28;20452;-76
2022/12/13 06:58:07;;;;;;;23.00;13.13;;;-8.30;80.50;;;-9.42;81.49;97392.72;5081086;28;20471;-75
2022/12/13 07:00:35;;;;;;;19.97;11.67;;;-8.40;80.50;;;-9.40;81.61;97382.97;5078786;28;20218;-73
2022/12/13 07:03:02;;;;;;;22.93;12.73;;;-8.30;79.90;;;-9.56;82.05;97398.06;5088847;28;21054;-76
2022/12/13 07:05:29;;;;;;;21.83;13.00;;;-8.40;79.90;;;-9.60;81.75;97396.59;5076255;28;20533;-75
2022/12/13 07:07:56;;;;;;;20.33;13.90;;;-8.40;80.10;;;-9.70;81.84;97401.63;5079389;28;20501;-76
2022/12/13 07:10:24;;;;;;;21.95;13.13;;;-8.50;80.60;;;-9.65;82.83;97385.59;5078282;28;20443;-78
2022/12/13 07:12:51;;;;;;;21.70;13.43;;;-8.50;81.40;;;-9.61;82.30;97374.00;5074728;28;20204;-77
2022/12/13 07:15:20;;;;;;;21.90;13.27;;;-8.40;81.20;;;-9.51;82.75;97384.66;5084323;28;20200;-78
2022/12/13 07:17:50;;;;;;;31.03;13.27;;;-8.40;81.90;;;-9.76;81.95;97340.09;5077006;28;20201;-77
2022/12/13 07:20:19;;;;;;;24.13;13.35;;;-8.40;81.70;;;-9.48;82.38;97387.06;5080278;28;20478;-76
2022/12/13 07:22:51;;;;;;;23.90;13.82;;;-8.40;80.90;;;-9.48;82.00;97390.50;5072962;28;22486;-76
2022/12/13 07:25:21;;;;;;;27.63;12.30;;;-8.40;81.40;;;-9.46;81.99;97393.88;5072073;28;20207;-72
2022/12/13 07:27:48;;;;;;;29.23;13.80;;;-8.40;81.20;;;-9.48;82.15;97400.16;5076467;28;20453;-72
2022/12/13 07:30:16;;;;;;;21.55;12.23;;;-8.30;81.40;;;-9.25;81.96;97409.88;5071128;28;20231;-72
2022/12/13 07:32:44;;;;;;;22.83;12.33;;;-8.30;81.30;;;-9.14;81.33;97414.38;5077759;28;20202;-72
2022/12/13 07:35:12;;;;;;;23.57;12.67;;;-8.20;81.90;;;-9.16;81.42;97405.78;5065910;28;21187;-71
2022/12/13 07:37:39;;;;;;;27.20;12.83;;;-8.20;81.80;;;-9.44;80.91;97397.22;5071193;28;20451;-72
2022/12/13 07:40:08;;;;;;;32.38;13.00;;;-8.30;79.80;;;-9.27;81.91;97403.06;5076112;28;21023;-73
2022/12/13 07:42:36;;;;;;;21.33;12.73;;;-8.20;80.90;;;-9.32;81.24;97413.03;5075970;28;20212;-73
2022/12/13 07:45:03;;;;;;;24.02;13.32;;;-8.20;80.20;;;-9.06;81.32;97407.75;5084761;28;20457;-73
2022/12/13 07:47:31;;;;;;;23.10;12.77;;;-8.10;80.90;;;-9.12;81.19;97415.09;5079802;28;20185;-72
2022/12/13 07:50:00;;;;;;;21.90;13.80;;;-8.10;80.10;;;-9.22;81.90;97411.44;5080783;28;20989;-73
2022/12/13 07:52:27;;;;;;;21.23;13.45;;;-8.10;80.10;;;-9.25;81.35;97411.66;5101104;27;20951;-72
2022/12/13 07:54:54;;;;;;;21.27;13.03;;;-8.10;80.20;;;-9.02;81.98;97411.81;5076176;28;20699;-72
2022/12/13 07:57:22;;;;;;;24.48;12.65;;;-8.10;80.30;;;-9.02;81.02;97396.09;5077318;28;21115;-71
2022/12/13 07:59:49;;;;;;;19.10;13.23;;;-8.00;80.10;;;-9.11;81.14;97359.19;5078272;28;20589;-73
2022/12/13 08:02:16;;;;;;;23.83;12.80;;;-7.90;80.10;;;-8.80;80.20;97390.19;5074946;28;20459;-73
2022/12/13 08:04:44;;;;;;;16.73;12.07;;;-7.90;79.70;;;-8.68;80.85;97409.47;5081066;28;20650;-73
2022/12/13 08:07:13;;;;;;;25.88;14.00;;;-7.90;80.30;;;-8.44;80.18;97403.34;5075681;28;20460;-73
2022/12/13 08:09:40;;;;;;;19.20;12.50;;;-7.70;82.10;;;-8.44;80.68;97403.34;5081608;28;20198;-71
2022/12/13 08:12:07;;;;;;;18.83;11.68;;;-7.60;80.90;;;-8.44;80.01;97403.34;5091485;28;20450;-72
2022/12/13 08:14:35;;;;;;;22.07;12.17;;;-7.60;80.10;;;-8.31;79.87;97409.38;5085002;28;20243;-72
2022/12/13 08:17:02;;;;;;;21.90;13.50;;;-7.50;80.40;;;-9.31;80.44;97292.53;5079491;28;20451;-72
2022/12/13 08:19:30;;;;;;;22.73;13.73;;;-7.50;79.30;;;-9.08;80.55;97336.34;5086679;28;20456;-69
2022/12/13 08:21:57;;;;;;;21.80;11.70;;;-7.50;79.70;;;-8.47;80.72;97419.31;5082327;28;20455;-71
2022/12/13 08:24:28;;;;;;;25.80;13.53;;;-7.40;79.90;;;-8.26;80.48;97417.78;5084016;28;20452;-71
2022/12/13 08:26:59;;;;;;;22.93;13.33;;;-7.40;80.50;;;-8.43;81.23;97424.22;5077344;28;20459;-73
2022/12/13 08:29:28;;;;;;;19.02;11.48;;;-7.30;79.80;;;-8.37;81.40;97416.84;5084345;28;20509;-69
2022/12/13 08:31:55;;;;;;;23.43;14.17;;;-7.30;80.20;;;-8.23;81.10;97419.31;5071652;28;20193;-72
2022/12/13 08:34:22;;;;;;;21.80;11.20;;;-7.20;80.20;;;-7.94;80.60;97421.59;5090633;28;20465;-72
2022/12/13 08:36:51;;;;;;;22.60;12.93;;;-7.10;80.90;;;-7.94;80.91;97423.38;5075987;28;20455;-73
2022/12/13 08:39:18;;;;;;;22.58;14.85;;;-7.00;80.20;;;-7.82;80.33;97422.44;5104263;27;20194;-73
2022/12/13 08:41:47;;;;;;;21.95;12.60;;;-7.00;80.00;;;-7.68;80.34;97414.38;5072494;28;20210;-72
2022/12/13 08:44:14;;;;;;;24.10;13.60;;;-6.90;81.00;;;-7.64;79.61;97420.25;5076805;28;20200;-73
2022/12/13 08:46:41;;;;;;;19.77;12.23;;;-6.80;80.50;;;-7.75;79.95;97405.31;5062646;28;21456;-73
2022/12/13 08:49:10;;;;;;;23.53;13.40;;;-6.70;80.20;;;-7.50;79.89;97427.09;5074467;28;20843;-72
2022/12/13 08:51:38;;;;;;;20.63;12.82;;;-6.60;79.50;;;-7.43;79.88;97433.53;5068886;28;21439;-68
2022/12/13 08:54:05;;;;;;;25.37;14.10;;;-6.60;79.20;;;-7.60;79.22;97402.50;5069369;28;20205;-72
2022/12/13 08:56:33;;;;;;;24.57;13.73;;;-6.50;78.90;;;-7.44;79.46;97429.25;5083741;28;20870;-70
2022/12/13 08:59:01;;;;;;;26.97;14.20;;;-6.50;78.70;;;-7.45;79.70;97430.19;5086383;28;20894;-70
2022/12/13 09:01:29;;;;;;;20.10;12.43;;;-6.50;78.10;;;-7.55;79.76;97410.84;5081351;28;20528;-70
2022/12/13 09:03:56;;;;;;;30.63;13.70;;;-6.50;78.50;;;-7.22;79.38;97432.84;5079113;28;20449;-71
2022/12/13 09:06:24;;;;;;;24.10;13.50;;;-6.40;78.70;;;-7.12;79.29;97452.19;5084830;28;20444;-71
2022/12/13 09:08:53;;;;;;;23.70;13.23;;;-6.30;78.70;;;-7.20;79.01;97441.47;5083419;28;20448;-73
2022/12/13 09:11:21;;;;;;;23.40;13.73;;;-6.20;78.50;;;-7.51;79.51;97398.31;5069140;28;20456;-71
2022/12/13 09:13:49;;;;;;;26.23;13.50;;;-6.20;78.00;;;-7.16;79.64;97432.38;5076146;28;20533;-70
2022/12/13 09:16:22;;;;;;;21.20;12.50;;;-6.20;78.40;;;-7.14;79.84;97433.09;5084247;28;20514;-71
2022/12/13 09:18:50;;;;;;;24.60;14.00;;;-6.20;77.80;;;-6.92;79.66;97434.06;5093164;28;20449;-70
2022/12/13 09:21:18;;;;;;;26.33;11.67;;;-6.10;78.80;;;-6.78;78.66;97430.38;5077510;28;20479;-73
2022/12/13 09:23:46;;;;;;;23.33;12.80;;;-5.90;78.60;;;-6.74;79.37;97430.97;5087073;28;20455;-71
2022/12/13 09:26:15;;;;;;;17.33;11.60;;;-5.90;78.50;;;-6.69;79.09;97424.34;5090703;28;20788;-70
2022/12/13 09:28:43;;;;;;;23.57;12.70;;;-5.80;78.60;;;-6.84;79.09;97413.28;5079902;28;20460;-70
2022/12/13 09:31:13;;;;;;;19.83;11.80;;;-5.80;77.50;;;-6.87;79.04;97396.91;5090927;28;20432;-69
2022/12/13 09:33:42;;;;;;;20.80;12.57;;;-5.70;77.40;;;-6.68;79.00;97415.53;5076020;28;20486;-70
2022/12/13 09:36:13;;;;;;;22.00;13.40;;;-5.70;77.30;;;-6.71;79.08;97400.00;5071747;28;20463;-71
2022/12/13 09:38:40;;;;;;;14.75;11.43;;;-5.70;77.60;;;-6.58;78.62;97420.91;5073606;28;20464;-71
2022/12/13 09:41:20;;;;;;;18.33;10.97;;;-5.60;77.80;;;-6.63;79.14;97412.53;5078175;28;20210;-72
2022/12/13 09:43:54;;;;;;;23.13;13.27;;;-5.60;77.50;;;-6.45;78.49;97430.41;5104111;27;20550;-72
2022/12/13 09:46:29;;;;;;;23.70;13.13;;;-5.60;77.40;;;-6.32;77.98;97420.59;5087903;28;20475;-71
2022/12/13 09:49:00;;;;;;;21.17;12.50;;;-5.50;77.10;;;-6.35;77.82;97426.09;5075164;28;20464;-71
2022/12/13 09:51:27;;;;;;;20.00;11.60;;;-5.40;76.90;;;-6.10;77.69;97421.50;5069215;28;20551;-72
2022/12/13 09:53:55;;;;;;;21.73;13.53;;;-5.30;77.30;;;-5.85;76.95;97425.56;5080698;28;20454;-73
2022/12/13 09:56:24;;;;;;;17.93;13.07;;;-5.20;77.30;;;-5.78;76.80;97419.78;5080022;28;21150;-73
2022/12/13 09:58:54;;;;;;;18.47;12.87;;;-5.10;78.00;;;-5.91;77.01;97398.91;5074549;28;20528;-72
2022/12/13 10:01:22;;;;;;;21.63;13.10;;;-5.10;77.10;;;-5.75;76.37;97412.47;5078384;28;20503;-72
2022/12/13 10:03:53;;;;;;;21.60;14.17;;;-5.00;76.40;;;-5.56;76.31;97408.28;5079286;28;20459;-71
2022/12/13 10:06:27;;;;;;;19.20;12.40;;;-4.90;76.70;;;-5.69;76.45;97397.97;5077919;28;20547;-72
2022/12/13 10:08:57;;;;;;;21.00;12.40;;;-4.80;75.70;;;-5.58;74.81;97397.06;5072866;28;21014;-71
2022/12/13 10:11:24;;;;;;;22.53;12.60;;;-4.70;74.40;;;-5.80;75.58;97383.06;5082104;28;20448;-70
2022/12/13 10:13:58;;;;;;;20.27;12.67;;;-4.70;74.10;;;-5.55;75.87;97389.75;5071240;28;20464;-71
2022/12/13 10:16:42;;;;;;;23.20;12.40;;;-4.70;74.90;;;-5.58;76.00;97389.16;5071631;28;20461;-71
2022/12/13 10:19:18;;;;;;;19.23;10.90;;;-4.80;75.00;;;-5.84;75.51;97376.38;5076935;28;20460;-70
2022/12/13 10:21:47;;;;;;;22.47;13.13;;;-4.70;74.50;;;-5.75;76.28;97351.94;5069175;28;21071;-71